Magic Sun — D54895U — position and weather

sailwx.info

Track history (hours):
 
Tides and Currents Weather Stations Pressure Air Temp Water Temp Dewpoint Dewpoint Depression Visibility Wind Speed Wind Dir Waves Ship Positions

Magic Sun

Last reported at 2017-Jun-17 18:25 UTC. Time now 2017-Aug-23 06:05 UTC.
Position N 49°29' E 000°06'.
Warning: this ship's position is months out of date.

Length 10 m.

Type: Sailing vessel. MMSI: 227018810.

Date/timePositionNaut miles runAvg speedWind from/ knotsBaromVisibWave heightAir tempDewpointWater temp
2017-Jun-17 18:25N 49°29' E 000°06'0 0.0
2017-Jun-17 17:58N 49°29' E 000°06'0 0.1
2017-Jun-17 17:28N 49°29' E 000°06'0 0.0
2017-Jun-17 16:58N 49°29' E 000°06'0 0.7
2017-Jun-17 16:30N 49°29' E 000°05'3 5.0
2017-Jun-17 16:00N 49°29' E 000°02'4 7.3
2017-Jun-17 15:31N 49°28' W 000°04'3 6.2
2017-Jun-17 15:00N 49°27' W 000°09'6 5.8
2017-Jun-17 14:00N 49°26' W 000°17'2 4.2
2017-Jun-17 13:30N 49°26' W 000°21'2 4.7
2017-Jun-17 13:00N 49°26' W 000°24'3 5.3
2017-Jun-17 12:30N 49°27' W 000°28'3 5.2
2017-Jun-17 12:00N 49°28' W 000°32'3 6.1
2017-Jun-17 11:30N 49°29' W 000°36'3 5.9
2017-Jun-17 11:00N 49°29' W 000°41'3 4.9
2017-Jun-17 10:29N 49°29' W 000°45'2 4.2
2017-Jun-17 09:55N 49°30' W 000°48'2 3.9
2017-Jun-17 09:26N 49°31' W 000°51'5 2.4
2017-Jun-17 07:11N 49°32' W 000°59'1 3.0
2017-Jun-17 06:55N 49°32' W 000°60'15 0.8
2017-Jun-16 12:16N 49°44' W 001°16'2 7.7
2017-Jun-16 12:00N 49°45' W 001°18'4 7.3
2017-Jun-16 11:30N 49°44' W 001°23'4 7.9
2017-Jun-16 11:00N 49°43' W 001°29'4 7.2
2017-Jun-16 10:30N 49°41' W 001°34'3 6.2
2017-Jun-16 10:00N 49°39' W 001°37'0 0.1
2017-Jun-16 09:30N 49°39' W 001°37'0 0.0
2017-Jun-16 09:00N 49°39' W 001°37'0 0.0
2017-Jun-16 08:30N 49°39' W 001°37'0 0.0
2017-Jun-16 08:00N 49°39' W 001°37'0 0.0
2017-Jun-16 07:30N 49°39' W 001°37'0 0.0
2017-Jun-16 07:00N 49°39' W 001°37'0 0.0
2017-Jun-16 06:30N 49°39' W 001°37'0 0.0
2017-Jun-16 06:00N 49°39' W 001°37'0 0.0
2017-Jun-16 05:30N 49°39' W 001°37'0 0.0
2017-Jun-16 05:00N 49°39' W 001°37'0 0.0
2017-Jun-16 04:30N 49°39' W 001°37'0 0.0
2017-Jun-16 04:00N 49°39' W 001°37'0 0.0
2017-Jun-16 03:30N 49°39' W 001°37'0 0.0
2017-Jun-16 02:57N 49°39' W 001°37'0 0.0
2017-Jun-16 02:30N 49°39' W 001°37'0 0.0
2017-Jun-16 02:00N 49°39' W 001°37'0 0.0
2017-Jun-16 01:30N 49°39' W 001°37'1 1.1
2017-Jun-16 01:00N 49°39' W 001°37'2 3.5
2017-Jun-16 00:30N 49°40' W 001°39'3 6.5
2017-Jun-16 00:00N 49°42' W 001°43'4 8.0
2017-Jun-15 23:30N 49°44' W 001°48'  
2017-Jun-12 12:25N 51°23' W 007°59'3 6.4
2017-Jun-12 12:00N 51°24' W 008°03'3 6.3
2017-Jun-12 11:30N 51°26' W 008°07'3 6.6
2017-Jun-12 11:00N 51°28' W 008°11'4 7.4
2017-Jun-12 10:30N 51°31' W 008°15'4 7.7
2017-Jun-12 09:59N 51°33' W 008°19'4 7.6
2017-Jun-12 09:30N 51°36' W 008°24'  
Track history (hours):
 
Tides and Currents Weather Stations Pressure Air Temp Water Temp Dewpoint Dewpoint Depression Visibility Wind Speed Wind Dir Waves Ship Positions

Magic Sun

Last reported at 2017-Jun-17 18:25 UTC. Time now 2017-Aug-23 06:05 UTC.
Position N 49°29' E 000°06'.
Warning: this ship's position is months out of date.

Length 10 m.

Type: Sailing vessel. MMSI: 227018810.

Date/timePositionNaut miles runAvg speedWind from/ knotsBaromVisibWave heightAir tempDewpointWater temp
2017-Jun-17 18:25N 49°29' E 000°06'0 0.0
2017-Jun-17 17:58N 49°29' E 000°06'0 0.1
2017-Jun-17 17:28N 49°29' E 000°06'0 0.0
2017-Jun-17 16:58N 49°29' E 000°06'0 0.7
2017-Jun-17 16:30N 49°29' E 000°05'3 5.0
2017-Jun-17 16:00N 49°29' E 000°02'4 7.3
2017-Jun-17 15:31N 49°28' W 000°04'3 6.2
2017-Jun-17 15:00N 49°27' W 000°09'6 5.8
2017-Jun-17 14:00N 49°26' W 000°17'2 4.2
2017-Jun-17 13:30N 49°26' W 000°21'2 4.7
2017-Jun-17 13:00N 49°26' W 000°24'3 5.3
2017-Jun-17 12:30N 49°27' W 000°28'3 5.2
2017-Jun-17 12:00N 49°28' W 000°32'3 6.1
2017-Jun-17 11:30N 49°29' W 000°36'3 5.9
2017-Jun-17 11:00N 49°29' W 000°41'3 4.9
2017-Jun-17 10:29N 49°29' W 000°45'2 4.2
2017-Jun-17 09:55N 49°30' W 000°48'2 3.9
2017-Jun-17 09:26N 49°31' W 000°51'5 2.4
2017-Jun-17 07:11N 49°32' W 000°59'1 3.0
2017-Jun-17 06:55N 49°32' W 000°60'15 0.8
2017-Jun-16 12:16N 49°44' W 001°16'2 7.7
2017-Jun-16 12:00N 49°45' W 001°18'4 7.3
2017-Jun-16 11:30N 49°44' W 001°23'4 7.9
2017-Jun-16 11:00N 49°43' W 001°29'4 7.2
2017-Jun-16 10:30N 49°41' W 001°34'3 6.2
2017-Jun-16 10:00N 49°39' W 001°37'0 0.1
2017-Jun-16 09:30N 49°39' W 001°37'0 0.0
2017-Jun-16 09:00N 49°39' W 001°37'0 0.0
2017-Jun-16 08:30N 49°39' W 001°37'0 0.0
2017-Jun-16 08:00N 49°39' W 001°37'0 0.0
2017-Jun-16 07:30N 49°39' W 001°37'0 0.0
2017-Jun-16 07:00N 49°39' W 001°37'0 0.0
2017-Jun-16 06:30N 49°39' W 001°37'0 0.0
2017-Jun-16 06:00N 49°39' W 001°37'0 0.0
2017-Jun-16 05:30N 49°39' W 001°37'0 0.0
2017-Jun-16 05:00N 49°39' W 001°37'0 0.0
2017-Jun-16 04:30N 49°39' W 001°37'0 0.0
2017-Jun-16 04:00N 49°39' W 001°37'0 0.0
2017-Jun-16 03:30N 49°39' W 001°37'0 0.0
2017-Jun-16 02:57N 49°39' W 001°37'0 0.0
2017-Jun-16 02:30N 49°39' W 001°37'0 0.0
2017-Jun-16 02:00N 49°39' W 001°37'0 0.0
2017-Jun-16 01:30N 49°39' W 001°37'1 1.1
2017-Jun-16 01:00N 49°39' W 001°37'2 3.5
2017-Jun-16 00:30N 49°40' W 001°39'3 6.5
2017-Jun-16 00:00N 49°42' W 001°43'4 8.0
2017-Jun-15 23:30N 49°44' W 001°48'  
2017-Jun-12 12:25N 51°23' W 007°59'3 6.4
2017-Jun-12 12:00N 51°24' W 008°03'3 6.3
2017-Jun-12 11:30N 51°26' W 008°07'3 6.6
2017-Jun-12 11:00N 51°28' W 008°11'4 7.4
2017-Jun-12 10:30N 51°31' W 008°15'4 7.7
2017-Jun-12 09:59N 51°33' W 008°19'4 7.6
2017-Jun-12 09:30N 51°36' W 008°24'  

Dump ship's entire track history